Hauptseite
METAR-TAF:

METAR-TAF

Flughäfen :

London-Heathrow, England

Flughafen London Heathrow

Breite: 51-29N, Länge: 000-27W, Höhe: 24 m

Beobachtung

Neuester Wetterbericht von vor 32 Minuten, um 04:50 UTC
Wind 6 kt aus Nordost
Temperatur 6°C
Luftfeuchtigkeit 81%
Luftdruck 1024 hPa
Sichtweite 10 km oder mehr

METAR: EGLL 260450Z AUTO 05006KT 9999 NCD 06/03 Q1024 NOSIG

Zeit: 06:22 (05:22 UTC)

Prognose

Neuester Wetterbericht von vor 3 Stunden und 3 Minuten, um 02:19 UTC
Gültige Prognose vom 26 um 02 UTC bis 27 um 06 UTC
Wind 9 kt aus Ost/Nordost
Sichtweite 10 km oder mehr
keine Wolken unter 1500 m und keine Kumulonimbus oder Gewitterwolken
Zeitweise
vom 27 um 00 UTC bis 27 um 06 UTC
Sichtweite: 8000 m
Wahrscheinlichkeit 30% :
Zeitweise
vom 27 um 03 UTC bis 27 um 06 UTC
Durchbrochene Bewölkung in der Höhe von 600 ft

TAF: EGLL 260219Z 2602/2706 06009KT CAVOK TEMPO 2700/2706 8000 PROB30 TEMPO 2703/2706 BKN006

Wetterbeobachtungen und Prognosen von mehr als 4000 Flughäfen (METAR und TAF Bericht).

Die verfügbaren Stationen werden durch gelbe und rote Markierungen auf der Karte dargestellt.

Führen Sie die Maus auf sie, um den Namen der Station zu sehen.

Darauf klicken, um die Beobachtung von Wetterbeobachtungen und Prognosen zu sehen.

Um die Karte zu ändern : klicken Sie auf den grünen Tasten mit einem schwarzen Kreuz Zum Vergrößern, auf den grünen Button mit einem Gedankenstrich zu verkleinern, oder auf die grünen Pfeile für benachbarte Karten.


METAR-TAF: